Time;durP1;ratioP1;P1;durP2;ratioP2;P2;SDS_P1;SDS_P2;PMS_P1;PMS_P2;Temp;Humidity;BMP_temperature;BMP_pressure;BME280_temperature;BME280_humidity;BME280_pressure;Samples;Min_cycle;Max_cycle;Signal;HPM_P1;HPM_P2
2021/09/14 00:00:35;;;;;;;13.10;7.73;;;;;;;16.49;100.00;96460.41;5091957;28;20597;-78
2021/09/14 00:03:02;;;;;;;7.73;6.93;;;;;;;16.47;100.00;96461.59;5091677;28;20200;-79
2021/09/14 00:05:30;;;;;;;10.77;6.97;;;;;;;16.30;100.00;96461.84;5085818;28;20300;-79
2021/09/14 00:07:58;;;;;;;8.50;7.30;;;;;;;16.35;100.00;96454.16;5071409;28;20197;-79
2021/09/14 00:10:25;;;;;;;9.97;7.10;;;;;;;16.45;100.00;96464.41;5071331;28;20207;-79
2021/09/14 00:12:54;;;;;;;8.73;7.30;;;;;;;16.20;100.00;96457.88;5071254;28;20726;-79
2021/09/14 00:15:21;;;;;;;8.27;7.20;;;;;;;16.26;100.00;96454.47;5071824;28;20202;-79
2021/09/14 00:17:48;;;;;;;9.30;6.73;;;;;;;16.23;100.00;96454.84;5071404;28;20206;-78
2021/09/14 00:20:15;;;;;;;7.50;6.70;;;;;;;16.35;100.00;96462.13;5071760;28;20199;-79
2021/09/14 00:22:42;;;;;;;12.23;7.47;;;;;;;16.16;100.00;96463.53;5071273;28;20196;-79
2021/09/14 00:25:11;;;;;;;7.80;7.10;;;;;;;16.01;100.00;96461.97;5071734;28;20207;-79
2021/09/14 00:27:38;;;;;;;12.67;7.60;;;;;;;16.11;100.00;96470.44;5071558;28;20238;-79
2021/09/14 00:30:08;;;;;;;7.43;6.60;;;;;;;15.92;100.00;96464.72;5072306;28;20246;-79
2021/09/14 00:32:35;;;;;;;8.47;7.67;;;;;;;16.09;100.00;96469.78;5075163;28;20227;-79
2021/09/14 00:35:02;;;;;;;8.30;7.50;;;;;;;16.02;100.00;96471.56;5075161;28;20591;-78
2021/09/14 00:37:29;;;;;;;9.03;8.17;;;;;;;15.85;100.00;96473.59;5074891;28;20208;-80
2021/09/14 00:39:56;;;;;;;8.97;7.40;;;;;;;15.85;100.00;96471.78;5074808;28;20289;-78
2021/09/14 00:42:24;;;;;;;9.27;7.50;;;;;;;15.85;100.00;96466.47;5074863;28;20277;-79
2021/09/14 00:44:51;;;;;;;7.40;6.80;;;;;;;15.83;100.00;96465.84;5074816;28;20204;-79
2021/09/14 00:47:20;;;;;;;11.97;7.60;;;;;;;15.77;100.00;96471.91;5075137;28;20578;-79
2021/09/14 00:49:47;;;;;;;9.27;7.90;;;;;;;15.81;100.00;96467.03;5074463;28;20199;-79
2021/09/14 00:52:14;;;;;;;8.23;7.43;;;;;;;15.83;100.00;96460.56;5074660;28;20741;-79
2021/09/14 00:54:44;;;;;;;10.70;6.90;;;;;;;15.68;100.00;96460.56;5074695;28;20210;-79
2021/09/14 00:57:12;;;;;;;8.47;6.63;;;;;;;15.73;100.00;96464.50;5075078;28;20299;-79
2021/09/14 00:59:39;;;;;;;7.77;6.97;;;;;;;15.70;100.00;96457.75;5074584;28;20291;-79
2021/09/14 01:02:06;;;;;;;8.83;7.93;;;;;;;15.59;100.00;96458.19;5074728;28;20656;-79
2021/09/14 01:04:35;;;;;;;8.60;7.80;;;;;;;15.63;100.00;96455.00;5074834;28;20204;-79
2021/09/14 01:07:03;;;;;;;9.23;7.60;;;;;;;15.31;100.00;96460.66;5074383;28;20684;-79
2021/09/14 01:09:32;;;;;;;10.57;7.47;;;;;;;15.15;100.00;96469.63;5074677;28;20207;-79
2021/09/14 01:11:59;;;;;;;8.60;7.70;;;;;;;15.49;100.00;96462.97;5074403;28;20219;-79
2021/09/14 01:14:26;;;;;;;10.77;8.00;;;;;;;15.39;100.00;96469.34;5074236;28;20203;-79
2021/09/14 01:16:54;;;;;;;9.03;7.77;;;;;;;15.63;100.00;96462.13;5074421;28;20212;-79
2021/09/14 01:19:21;;;;;;;9.03;7.60;;;;;;;15.43;100.00;96470.63;5074164;28;20281;-78
2021/09/14 01:21:50;;;;;;;9.27;7.77;;;;;;;15.61;100.00;96467.59;5074617;28;20199;-79
2021/09/14 01:24:18;;;;;;;8.07;7.20;;;;;;;15.52;100.00;96463.41;5074009;28;20204;-78
2021/09/14 01:26:45;;;;;;;8.03;7.30;;;;;;;15.61;100.00;96459.63;5073986;28;20291;-80
2021/09/14 01:30:12;;;;;;;7.97;6.93;;;;;;;15.51;100.00;96460.94;5074351;28;20580;-79
2021/09/14 01:32:02;;;;;;;8.43;7.63;;;;;;;15.35;100.00;96457.50;5073892;28;20306;-78
2021/09/14 01:34:30;;;;;;;10.70;7.07;;;;;;;15.52;100.00;96451.97;5073712;28;20205;-79
2021/09/14 01:36:57;;;;;;;11.07;7.33;;;;;;;15.52;100.00;96452.81;5073963;28;20205;-79
2021/09/14 01:39:25;;;;;;;11.27;8.00;;;;;;;15.49;100.00;96449.72;5073879;28;20206;-79
2021/09/14 01:41:53;;;;;;;8.40;7.60;;;;;;;15.41;100.00;96446.16;5073903;28;20301;-79
2021/09/14 01:44:20;;;;;;;9.30;7.53;;;;;;;15.41;100.00;96442.66;5073510;28;20288;-78
2021/09/14 01:46:48;;;;;;;9.37;8.53;;;;;;;15.28;100.00;96447.81;5073785;28;20197;-78
2021/09/14 01:49:15;;;;;;;10.80;7.70;;;;;;;15.06;100.00;96453.00;5074014;28;20649;-78
2021/09/14 01:51:42;;;;;;;9.10;8.07;;;;;;;15.08;100.00;96451.00;5073665;28;20202;-79
2021/09/14 01:54:10;;;;;;;10.87;8.00;;;;;;;15.10;100.00;96453.47;5073307;28;20761;-78
2021/09/14 01:56:39;;;;;;;10.53;7.83;;;;;;;15.10;100.00;96449.00;5073924;28;20206;-79
2021/09/14 01:59:06;;;;;;;13.07;8.40;;;;;;;15.15;100.00;96451.09;5073376;28;20193;-79
2021/09/14 02:01:36;;;;;;;9.30;8.40;;;;;;;15.14;100.00;96454.75;5073856;28;20555;-79
2021/09/14 02:04:06;;;;;;;8.07;7.27;;;;;;;15.21;100.00;96450.38;5073331;28;20198;-79
2021/09/14 02:06:53;;;;;;;9.70;8.77;;;;;;;14.92;100.00;96449.34;5073297;28;20179;-78
2021/09/14 02:23:57;;;;;;;9.10;8.30;;;;;;;14.83;100.00;96455.75;5031050;28;20206;-79
2021/09/14 02:40:19;;;;;;;10.17;7.50;;;;;;;14.73;100.00;96453.34;5072834;28;20231;-78
2021/09/14 02:58:37;;;;;;;12.63;8.00;;;;;;;14.72;100.00;96456.16;5067541;28;20285;-78
2021/09/14 02:59:44;;;;;;;8.20;7.40;;;;;;;14.64;100.00;96454.41;5072335;28;20217;-78
2021/09/14 03:02:12;;;;;;;9.20;8.20;;;;;;;14.59;100.00;96450.69;5072360;28;20231;-78
2021/09/14 03:04:39;;;;;;;11.67;8.47;;;;;;;14.64;100.00;96456.25;5072326;28;20203;-78
2021/09/14 03:07:07;;;;;;;11.67;8.07;;;;;;;14.48;100.00;96458.00;5071450;28;20202;-78
2021/09/14 03:09:34;;;;;;;8.67;7.77;;;;;;;14.48;100.00;96454.53;5091771;28;20197;-79
2021/09/14 03:12:01;;;;;;;9.50;8.23;;;;;;;14.64;100.00;96453.59;5092328;28;20202;-78
2021/09/14 03:14:28;;;;;;;11.97;8.13;;;;;;;14.68;100.00;96462.81;5092139;28;20199;-78
2021/09/14 03:16:55;;;;;;;9.33;8.43;;;;;;;14.74;100.00;96459.44;5092396;28;20196;-78
2021/09/14 03:19:24;;;;;;;9.87;7.97;;;;;;;14.70;100.00;96458.19;5092143;28;20197;-79
2021/09/14 03:21:51;;;;;;;11.73;8.83;;;;;;;14.60;100.00;96465.53;5092087;28;20196;-78
2021/09/14 03:24:18;;;;;;;14.60;7.60;;;;;;;14.36;100.00;96463.88;5092068;28;20197;-78
2021/09/14 03:26:45;;;;;;;11.63;8.33;;;;;;;14.42;100.00;96471.94;5091884;28;20192;-78
2021/09/14 03:29:12;;;;;;;8.47;7.67;;;;;;;14.58;100.00;96468.38;5091509;28;20694;-79
2021/09/14 03:31:40;;;;;;;9.77;8.60;;;;;;;14.66;100.00;96478.06;5084801;28;20747;-78
2021/09/14 03:34:07;;;;;;;9.50;7.80;;;;;;;14.80;100.00;96477.25;5072283;28;20628;-78
2021/09/14 03:36:35;;;;;;;13.10;8.80;;;;;;;14.71;100.00;96475.69;5087868;28;20297;-78
2021/09/14 03:39:03;;;;;;;10.40;8.30;;;;;;;14.67;100.00;96469.94;5081332;28;20666;-78
2021/09/14 03:41:30;;;;;;;16.97;8.60;;;;;;;14.60;100.00;96471.66;5071884;28;20213;-78
2021/09/14 03:43:57;;;;;;;9.57;8.43;;;;;;;14.48;100.00;96479.16;5071266;28;20201;-78
2021/09/14 03:46:24;;;;;;;9.43;8.50;;;;;;;14.45;100.00;96462.84;5071877;28;20255;-78
2021/09/14 03:48:51;;;;;;;8.67;7.93;;;;;;;14.53;100.00;96473.38;5071547;28;20204;-78
2021/09/14 03:51:19;;;;;;;9.23;8.27;;;;;;;14.63;100.00;96478.41;5071832;28;20279;-78
2021/09/14 03:53:47;;;;;;;10.10;8.40;;;;;;;14.68;100.00;96476.84;5071779;28;20665;-78
2021/09/14 03:56:14;;;;;;;9.33;7.53;;;;;;;14.80;100.00;96477.25;5071733;28;20235;-78
2021/09/14 03:58:42;;;;;;;10.37;8.47;;;;;;;14.76;100.00;96481.28;5071291;28;20203;-78
2021/09/14 04:01:09;;;;;;;11.47;8.93;;;;;;;14.75;100.00;96479.59;5071677;28;20236;-78
2021/09/14 04:03:43;;;;;;;8.77;7.87;;;;;;;14.64;100.00;96475.56;5071995;28;20240;-78
2021/09/14 04:06:33;;;;;;;10.87;7.87;;;;;;;14.64;100.00;96480.88;5076082;28;20211;-78
2021/09/14 04:09:02;;;;;;;8.63;7.80;;;;;;;14.57;100.00;96485.22;5075560;28;20284;-78
2021/09/14 04:11:29;;;;;;;14.67;8.73;;;;;;;14.54;100.00;96487.41;5075498;28;20197;-78
2021/09/14 04:13:56;;;;;;;10.17;8.20;;;;;;;14.64;100.00;96485.34;5075225;28;20316;-78
2021/09/14 04:16:23;;;;;;;11.00;8.40;;;;;;;14.79;100.00;96490.66;5075545;28;20193;-78
2021/09/14 04:18:51;;;;;;;11.90;8.77;;;;;;;14.92;100.00;96489.03;5075371;28;20237;-78
2021/09/14 04:21:18;;;;;;;11.40;8.03;;;;;;;14.99;100.00;96489.97;5075361;28;20193;-78
2021/09/14 04:23:45;;;;;;;12.00;8.93;;;;;;;15.01;100.00;96491.63;5075160;28;20205;-78
2021/09/14 04:26:14;;;;;;;8.73;7.60;;;;;;;15.12;100.00;96501.75;5075057;28;20209;-78
2021/09/14 04:28:41;;;;;;;10.10;7.70;;;;;;;15.29;100.00;96510.34;5075369;28;20231;-78
2021/09/14 04:31:08;;;;;;;10.83;8.37;;;;;;;15.40;100.00;96507.25;5075084;28;20584;-78
2021/09/14 04:33:35;;;;;;;10.90;8.37;;;;;;;15.62;100.00;96511.63;5074813;28;20225;-78
2021/09/14 04:36:03;;;;;;;7.67;6.83;;;;;;;15.75;100.00;96515.47;5074874;28;20206;-78
2021/09/14 04:38:30;;;;;;;8.20;7.37;;;;;;;15.86;100.00;96513.19;5074802;28;20194;-78
2021/09/14 04:40:57;;;;;;;8.00;7.27;;;;;;;15.89;100.00;96520.75;5075100;28;20193;-78
2021/09/14 04:43:26;;;;;;;15.43;8.63;;;;;;;15.95;100.00;96521.03;5074898;28;20190;-78
2021/09/14 04:45:53;;;;;;;16.27;8.40;;;;;;;15.96;100.00;96522.66;5074960;28;20203;-78
2021/09/14 04:48:20;;;;;;;10.43;7.90;;;;;;;16.04;100.00;96519.94;5074697;28;20239;-78
2021/09/14 04:50:47;;;;;;;8.10;7.23;;;;;;;16.09;100.00;96522.81;5074818;28;20199;-78
2021/09/14 04:53:14;;;;;;;10.60;7.70;;;;;;;16.09;100.00;96522.81;5074516;28;20703;-78
2021/09/14 04:55:42;;;;;;;10.60;8.60;;;;;;;16.13;100.00;96530.22;5082513;28;20230;-78
2021/09/14 04:58:09;;;;;;;11.17;8.37;;;;;;;16.20;100.00;96529.47;5075678;28;20229;-78
2021/09/14 05:00:37;;;;;;;10.27;7.33;;;;;;;16.19;100.00;96535.78;5094925;28;20230;-78
2021/09/14 05:03:04;;;;;;;10.33;7.97;;;;;;;16.19;100.00;96531.31;5094681;28;20206;-78
2021/09/14 05:05:32;;;;;;;19.57;8.40;;;;;;;16.15;100.00;96535.34;5094948;28;20587;-78
2021/09/14 05:07:59;;;;;;;19.30;9.27;;;;;;;16.17;100.00;96541.25;5083688;28;20298;-78
2021/09/14 05:10:27;;;;;;;16.40;8.43;;;;;;;16.18;100.00;96540.28;5074559;28;20217;-78
2021/09/14 05:12:54;;;;;;;15.47;7.77;;;;;;;16.24;100.00;96536.84;5074417;28;20572;-79
2021/09/14 05:15:21;;;;;;;23.60;9.43;;;;;;;16.26;100.00;96550.75;5073663;28;20196;-78
2021/09/14 05:17:50;;;;;;;17.33;8.43;;;;;;;16.31;100.00;96548.34;5074444;28;20204;-78
2021/09/14 05:20:17;;;;;;;10.80;7.93;;;;;;;16.30;100.00;96545.91;5074294;28;20295;-79
2021/09/14 05:22:46;;;;;;;18.67;7.73;;;;;;;16.31;100.00;96547.53;5073892;28;20204;-79
2021/09/14 05:25:13;;;;;;;12.37;7.77;;;;;;;16.38;100.00;96545.78;5074163;28;20204;-78
2021/09/14 05:27:40;;;;;;;12.13;8.40;;;;;;;16.38;100.00;96543.13;5074059;28;20231;-78
2021/09/14 05:30:09;;;;;;;13.80;7.87;;;;;;;16.53;100.00;96551.06;5073977;28;20242;-78
2021/09/14 05:32:36;;;;;;;9.93;7.63;;;;;;;16.56;100.00;96553.34;5073861;28;20196;-78
2021/09/14 05:35:06;;;;;;;9.23;6.60;;;;;;;16.68;100.00;96554.44;5074561;28;20650;-78
2021/09/14 05:37:33;;;;;;;10.40;7.23;;;;;;;16.73;100.00;96549.41;5094319;28;20659;-78
2021/09/14 05:40:00;;;;;;;11.83;7.10;;;;;;;16.79;100.00;96558.47;5094205;28;20198;-78
2021/09/14 05:42:28;;;;;;;15.73;7.47;;;;;;;16.93;100.00;96564.72;5094016;28;20202;-78
2021/09/14 05:44:55;;;;;;;11.03;7.73;;;;;;;16.99;100.00;96562.13;5093789;28;20191;-78
2021/09/14 05:47:22;;;;;;;7.93;7.10;;;;;;;17.08;100.00;96568.13;5093944;28;20202;-79
2021/09/14 05:49:49;;;;;;;8.80;6.67;;;;;;;17.26;100.00;96575.63;5094232;28;20223;-79
2021/09/14 05:52:18;;;;;;;10.30;7.40;;;;;;;17.38;100.00;96570.59;5093825;28;20245;-78
2021/09/14 05:54:45;;;;;;;10.10;6.67;;;;;;;17.55;100.00;96575.41;5093470;28;20224;-79
2021/09/14 05:57:12;;;;;;;8.87;7.10;;;;;;;17.65;100.00;96583.03;5093797;28;20669;-78
2021/09/14 05:59:39;;;;;;;9.37;7.57;;;;;;;17.83;100.00;96575.38;5093591;28;20287;-78
2021/09/14 06:02:07;;;;;;;9.10;6.63;;;;;;;17.98;100.00;96574.47;5094075;28;20204;-78
2021/09/14 06:04:34;;;;;;;13.23;7.63;;;;;;;18.06;100.00;96571.63;5093624;28;20275;-79
2021/09/14 06:07:01;;;;;;;9.17;6.93;;;;;;;18.10;100.00;96578.19;5091111;28;20199;-79
2021/09/14 06:09:30;;;;;;;10.70;7.27;;;;;;;18.18;100.00;96575.34;5073197;28;20285;-78
2021/09/14 06:11:57;;;;;;;10.57;7.77;;;;;;;18.34;100.00;96576.84;5073327;28;20207;-79
2021/09/14 06:14:24;;;;;;;9.77;7.03;;;;;;;18.46;100.00;96588.56;5073150;28;20304;-78
2021/09/14 06:16:52;;;;;;;11.27;7.57;;;;;;;18.63;100.00;96588.19;5073208;28;20232;-79
2021/09/14 06:19:21;;;;;;;8.30;7.23;;;;;;;18.75;100.00;96583.94;5072972;28;20201;-78
2021/09/14 06:21:48;;;;;;;7.27;6.57;;;;;;;18.87;100.00;96586.81;5073393;28;20201;-79
2021/09/14 06:24:15;;;;;;;7.27;6.57;;;;;;;18.97;100.00;96587.25;5072907;28;20571;-79
2021/09/14 06:26:44;;;;;;;7.83;6.87;;;;;;;19.16;100.00;96585.63;5073010;28;20199;-79
2021/09/14 06:29:11;;;;;;;14.17;7.47;;;;;;;19.38;100.00;96580.91;5072729;28;20207;-79
2021/09/14 06:31:38;;;;;;;9.87;6.33;;;;;;;19.51;100.00;96577.41;5072594;28;20276;-79
2021/09/14 06:34:06;;;;;;;9.03;6.67;;;;;;;19.75;100.00;96589.31;5072635;28;20220;-79
2021/09/14 06:36:33;;;;;;;9.80;6.20;;;;;;;19.92;100.00;96590.50;5073189;28;20197;-79
2021/09/14 06:39:00;;;;;;;10.57;7.00;;;;;;;20.04;100.00;96593.31;5072601;28;20288;-79
2021/09/14 06:41:28;;;;;;;8.70;6.37;;;;;;;20.29;100.00;96591.56;5072509;28;20201;-79
2021/09/14 06:43:57;;;;;;;13.97;6.50;;;;;;;20.50;100.00;96606.50;5072544;28;20223;-79
2021/09/14 06:46:25;;;;;;;11.73;6.67;;;;;;;20.57;100.00;96604.63;5072981;28;20197;-79
2021/09/14 06:48:52;;;;;;;15.90;6.67;;;;;;;20.83;100.00;96611.69;5072454;28;20197;-79
2021/09/14 06:51:20;;;;;;;8.50;6.40;;;;;;;20.96;100.00;96624.16;5072661;28;20197;-79
2021/09/14 06:53:47;;;;;;;7.73;6.10;;;;;;;21.16;100.00;96620.50;5072531;28;20304;-79
2021/09/14 06:56:14;;;;;;;8.17;5.80;;;;;;;21.37;100.00;96622.84;5072469;28;20201;-79
2021/09/14 06:58:42;;;;;;;6.90;6.17;;;;;;;21.47;100.00;96628.50;5072518;28;20558;-79
2021/09/14 07:01:18;;;;;;;7.97;6.30;;;;;;;21.73;100.00;96632.00;5072709;28;20197;-79
2021/09/14 07:03:45;;;;;;;8.67;6.03;;;;;;;21.82;100.00;96626.16;5072527;28;20181;-79
2021/09/14 07:06:12;;;;;;;6.83;5.60;;;;;;;22.00;100.00;96636.06;5072372;28;20203;-79
2021/09/14 07:08:40;;;;;;;10.50;6.23;;;;;;;22.13;100.00;96635.09;5072374;28;20200;-79
2021/09/14 07:11:07;;;;;;;7.60;6.17;;;;;;;22.41;100.00;96639.13;5072232;28;20679;-79
2021/09/14 07:13:34;;;;;;;7.10;5.73;;;;;;;22.45;100.00;96640.34;5071729;28;20221;-79
2021/09/14 07:16:02;;;;;;;7.30;6.40;;;;;;;22.59;100.00;96633.78;5072218;28;20204;-79
2021/09/14 07:18:30;;;;;;;6.53;5.40;;;;;;;22.72;100.00;96638.13;5072267;28;20593;-79
2021/09/14 07:20:58;;;;;;;10.50;6.37;;;;;;;22.93;100.00;96631.47;5072100;28;20240;-79
2021/09/14 07:23:25;;;;;;;6.73;6.13;;;;;;;22.88;100.00;96642.84;5071835;28;20199;-79
2021/09/14 07:25:52;;;;;;;7.20;5.67;;;;;;;23.25;100.00;96642.78;5071787;28;20197;-79
2021/09/14 07:28:19;;;;;;;7.53;6.10;;;;;;;23.33;100.00;96641.63;5072094;28;20300;-79
2021/09/14 07:30:47;;;;;;;6.17;5.57;;;;;;;23.29;100.00;96643.97;5071839;28;20279;-80
2021/09/14 07:33:15;;;;;;;8.77;6.40;;;;;;;23.44;100.00;96646.19;5071703;28;20673;-80
2021/09/14 07:35:45;;;;;;;8.50;6.00;;;;;;;23.46;100.00;96647.59;5071652;28;20193;-79
2021/09/14 07:38:12;;;;;;;6.67;6.03;;;;;;;23.89;100.00;96656.41;5071795;28;20208;-79
2021/09/14 07:40:40;;;;;;;7.00;6.10;;;;;;;23.91;100.00;96657.00;5072175;28;20216;-80
2021/09/14 07:43:07;;;;;;;8.43;5.73;;;;;;;24.17;100.00;96653.00;5071497;28;20203;-80
2021/09/14 07:45:34;;;;;;;9.27;6.70;;;;;;;24.16;100.00;96641.47;5071784;28;20240;-80
2021/09/14 07:48:01;;;;;;;8.17;5.90;;;;;;;24.14;100.00;96653.47;5071665;28;20201;-79
2021/09/14 07:50:29;;;;;;;10.90;6.20;;;;;;;24.53;100.00;96659.19;5071796;28;20291;-80
2021/09/14 07:52:58;;;;;;;7.60;6.47;;;;;;;24.73;100.00;96659.59;5071348;28;20928;-80
2021/09/14 07:55:25;;;;;;;8.07;6.50;;;;;;;24.67;100.00;96658.69;5071979;28;20217;-80
2021/09/14 07:57:53;;;;;;;7.43;6.60;;;;;;;24.80;100.00;96649.53;5071536;28;20284;-80
2021/09/14 08:00:21;;;;;;;6.27;5.60;;;;;;;24.79;100.00;96658.63;5071363;28;20236;-80
2021/09/14 08:02:54;;;;;;;7.60;6.33;;;;;;;25.20;100.00;96659.44;5071833;28;20592;-80
2021/09/14 08:05:22;;;;;;;11.43;6.70;;;;;;;25.20;100.00;96655.91;5071680;28;20188;-81
2021/09/14 08:07:49;;;;;;;8.53;6.60;;;;;;;25.38;100.00;96648.44;5071441;28;20236;-80
2021/09/14 08:10:18;;;;;;;6.30;5.30;;;;;;;25.42;100.00;96642.56;5071624;28;20197;-80
2021/09/14 08:12:46;;;;;;;10.23;6.87;;;;;;;25.87;100.00;96647.88;5071209;28;20208;-80
2021/09/14 08:15:14;;;;;;;8.40;6.70;;;;;;;25.92;100.00;96644.47;5071514;28;20220;-80
2021/09/14 08:17:41;;;;;;;7.63;6.80;;;;;;;25.64;100.00;96648.88;5071396;28;20208;-80
2021/09/14 08:20:09;;;;;;;7.03;6.33;;;;;;;25.79;100.00;96642.91;5071755;28;20280;-80
2021/09/14 08:22:36;;;;;;;7.77;6.97;;;;;;;26.27;100.00;96644.16;5071114;28;20201;-80
2021/09/14 08:25:05;;;;;;;8.85;6.97;;;;;;;26.35;100.00;96640.22;5071750;28;20193;-80
2021/09/14 08:27:34;;;;;;;6.83;6.13;;;;;;;26.76;100.00;96634.28;5071211;28;20670;-80
2021/09/14 08:30:01;;;;;;;11.43;5.75;;;;;;;26.59;100.00;96641.63;5071182;28;20311;-80
2021/09/14 08:32:28;;;;;;;7.05;6.18;;;;;;;26.58;100.00;96639.19;5071583;28;20286;-80
2021/09/14 08:34:56;;;;;;;10.23;6.30;;;;;;;26.74;100.00;96640.97;5071274;28;20225;-80
2021/09/14 08:37:23;;;;;;;6.95;5.97;;;;;;;26.73;100.00;96639.38;5071600;28;20215;-80
2021/09/14 08:39:50;;;;;;;7.38;5.72;;;;;;;27.38;100.00;96634.94;5070997;28;20201;-80
2021/09/14 08:42:17;;;;;;;8.45;5.75;;;;;;;27.41;100.00;96640.63;5071310;28;20193;-80
2021/09/14 08:44:46;;;;;;;6.68;5.25;;;;;;;27.20;100.00;96636.13;5071177;28;20288;-80
2021/09/14 08:47:14;;;;;;;5.72;5.20;;;;;;;27.06;100.00;96641.09;5071518;28;20235;-80
2021/09/14 08:49:41;;;;;;;6.20;5.60;;;;;;;27.44;100.00;96626.63;5071125;28;20197;-80
2021/09/14 08:52:11;;;;;;;6.25;5.65;;;;;;;27.83;100.00;96639.09;5074091;28;20197;-80
2021/09/14 08:54:38;;;;;;;6.78;5.82;;;;;;;27.94;100.00;96635.38;5074641;28;20267;-80
2021/09/14 08:57:06;;;;;;;10.50;6.38;;;;;;;27.92;100.00;96632.97;5074832;28;20287;-80
2021/09/14 08:59:34;;;;;;;7.47;6.10;;;;;;;28.08;100.00;96636.56;5074550;28;20236;-80
2021/09/14 09:02:05;;;;;;;6.10;5.55;;;;;;;28.10;100.00;96637.13;5074462;28;20220;-80
2021/09/14 09:04:32;;;;;;;6.05;5.45;;;;;;;27.24;100.00;96624.56;5074793;28;20638;-80
2021/09/14 09:07:00;;;;;;;10.50;5.93;;;;;;;27.40;100.00;96632.78;5074921;28;20224;-80
2021/09/14 09:09:29;;;;;;;9.35;5.82;;;;;;;27.94;100.00;96628.09;5074695;28;20203;-80
2021/09/14 09:11:58;;;;;;;11.48;5.97;;;;;;;28.17;100.00;96636.88;5074278;28;20197;-80
2021/09/14 09:14:39;;;;;;;6.60;5.30;;;;;;;28.15;100.00;96629.03;5074288;28;20278;-80
2021/09/14 09:17:10;;;;;;;7.05;5.47;;;;;;;27.84;100.00;96627.22;5074444;28;20229;-80
2021/09/14 09:19:38;;;;;;;7.53;5.72;;;;;;;27.91;100.00;96625.09;5074293;28;20186;-80
2021/09/14 09:22:07;;;;;;;5.57;5.00;;;;;;;28.42;100.00;96628.13;5074143;28;20208;-80
2021/09/14 09:24:44;;;;;;;6.82;5.82;;;;;;;28.64;100.00;96626.03;5074181;28;20662;-80
2021/09/14 09:27:13;;;;;;;7.97;5.60;;;;;;;28.29;100.00;96623.16;5074270;28;20177;-80
2021/09/14 09:29:40;;;;;;;6.38;5.05;;;;;;;28.43;100.00;96619.72;5073818;28;20673;-81
2021/09/14 09:32:09;;;;;;;6.65;5.97;;;;;;;28.59;100.00;96625.22;5074575;28;20185;-80
2021/09/14 09:34:37;;;;;;;7.53;5.78;;;;;;;28.11;100.00;96627.13;5073911;28;20247;-80
2021/09/14 09:37:06;;;;;;;7.97;5.38;;;;;;;28.73;100.00;96630.94;5074420;28;20556;-80
2021/09/14 09:39:41;;;;;;;5.60;5.10;;;;;;;29.32;100.00;96631.38;5074141;28;20196;-80
2021/09/14 09:42:10;;;;;;;6.53;5.82;;;;;;;30.00;100.00;96627.59;5074042;28;20193;-81
2021/09/14 09:44:38;;;;;;;6.15;5.55;;;;;;;29.14;100.00;96621.06;5073529;28;20204;-80
2021/09/14 09:47:06;;;;;;;6.45;5.55;;;;;;;29.29;100.00;96617.56;5074192;28;20204;-80
2021/09/14 09:49:35;;;;;;;6.97;6.07;;;;;;;29.48;100.00;96612.41;5073635;28;20226;-81
2021/09/14 09:52:02;;;;;;;8.63;6.00;;;;;;;29.21;100.00;96605.38;5074083;28;20201;-80
2021/09/14 09:54:29;;;;;;;6.38;5.78;;;;;;;29.24;100.00;96609.44;5073225;28;20236;-80
2021/09/14 09:56:58;;;;;;;6.45;5.80;;;;;;;29.66;100.00;96605.69;5073659;28;20665;-81
2021/09/14 09:59:27;;;;;;;7.85;6.40;;;;;;;29.68;100.00;96598.88;5073487;28;20725;-81
2021/09/14 10:02:10;;;;;;;6.47;5.18;;;;;;;30.12;100.00;96605.59;5073483;28;20255;-80
2021/09/14 10:04:46;;;;;;;7.40;5.40;;;;;;;30.01;100.00;96610.22;5073209;28;20211;-81
2021/09/14 10:07:15;;;;;;;8.88;5.68;;;;;;;29.90;100.00;96605.94;5073439;28;20655;-81
2021/09/14 10:09:53;;;;;;;6.30;5.70;;;;;;;29.83;100.00;96603.50;5073343;28;20761;-80
2021/09/14 10:12:28;;;;;;;7.05;5.90;;;;;;;30.19;100.00;96600.72;5073615;28;20628;-80
2021/09/14 10:15:00;;;;;;;6.47;5.50;;;;;;;30.50;100.00;96604.94;5073199;28;20282;-80
2021/09/14 10:17:28;;;;;;;11.63;5.93;;;;;;;30.53;100.00;96600.88;5073278;28;20639;-80
2021/09/14 10:19:57;;;;;;;9.05;6.30;;;;;;;30.61;100.00;96602.19;5073431;28;20279;-80
2021/09/14 10:22:28;;;;;;;9.82;5.25;;;;;;;29.63;100.00;96590.78;5073085;28;20589;-80
2021/09/14 10:24:59;;;;;;;5.90;5.35;;;;;;;30.12;100.00;96605.59;5073362;28;20204;-80
2021/09/14 10:27:37;;;;;;;9.55;5.60;;;;;;;29.71;100.00;96606.47;5072727;28;20192;-80
2021/09/14 10:30:06;;;;;;;11.15;5.63;;;;;;;29.45;100.00;96597.53;5072872;28;20245;-80
2021/09/14 10:32:41;;;;;;;12.48;6.15;;;;;;;29.97;100.00;96601.84;5072798;28;20201;-80
2021/09/14 10:35:12;;;;;;;5.70;5.22;;;;;;;29.72;100.00;96607.28;5072840;28;20266;-80
2021/09/14 10:37:40;;;;;;;7.78;5.40;;;;;;;29.69;100.00;96599.72;5072775;28;20197;-81
2021/09/14 10:40:17;;;;;;;6.82;4.72;;;;;;;30.00;100.00;96601.28;5072796;28;20288;-81
2021/09/14 10:42:47;;;;;;;6.38;5.22;;;;;;;30.03;100.00;96591.78;5072606;28;20660;-80
2021/09/14 10:45:16;;;;;;;5.80;4.82;;;;;;;30.13;100.00;96601.78;5072839;28;20546;-80
2021/09/14 10:47:48;;;;;;;5.40;5.00;;;;;;;30.47;100.00;96589.22;5072419;28;20284;-81
2021/09/14 10:50:29;;;;;;;9.93;5.03;;;;;;;30.51;100.00;96594.91;5072703;28;20243;-80
2021/09/14 10:52:59;;;;;;;5.40;4.90;;;;;;;30.05;100.00;96590.44;5072382;28;20659;-81
2021/09/14 10:55:26;;;;;;;4.65;4.25;;;;;;;29.67;100.00;96588.34;5072214;28;20693;-81
2021/09/14 10:58:00;;;;;;;6.82;4.43;;;;;;;29.23;100.00;96584.25;5072541;28;20220;-80
2021/09/14 11:00:29;;;;;;;6.72;6.13;;;;;;;29.72;100.00;96589.16;5072857;28;20192;-80
2021/09/14 11:02:57;;;;;;;6.30;5.57;;;;;;;29.56;100.00;96587.50;5072546;28;20726;-81
2021/09/14 11:05:30;;;;;;;7.80;4.85;;;;;;;29.29;100.00;96579.66;5072427;28;20276;-81
2021/09/14 11:07:59;;;;;;;8.65;5.40;;;;;;;29.44;100.00;96576.94;5072180;28;20189;-80
2021/09/14 11:10:32;;;;;;;6.65;4.88;;;;;;;29.52;100.00;96576.41;5072314;28;20258;-80
2021/09/14 11:12:59;;;;;;;8.05;5.75;;;;;;;29.55;100.00;96570.47;5071475;28;20208;-81
2021/09/14 11:15:26;;;;;;;7.25;5.75;;;;;;;29.82;100.00;96574.75;5072246;28;20604;-81
2021/09/14 11:17:54;;;;;;;5.63;4.90;;;;;;;29.73;100.00;96573.72;5071952;28;20287;-81
2021/09/14 11:20:25;;;;;;;10.60;5.80;;;;;;;29.86;100.00;96565.03;5071922;28;20596;-81
2021/09/14 11:22:55;;;;;;;5.50;4.90;;;;;;;29.79;100.00;96569.88;5071991;28;20181;-81
2021/09/14 11:25:26;;;;;;;6.38;4.50;;;;;;;29.96;100.00;96561.44;5072088;28;20208;-81
2021/09/14 11:27:58;;;;;;;7.00;5.55;;;;;;;29.65;100.00;96566.13;5072187;28;20274;-80
2021/09/14 11:30:26;;;;;;;11.07;5.50;;;;;;;29.41;100.00;96569.38;5071910;28;20311;-80
2021/09/14 11:32:55;;;;;;;6.30;5.57;;;;;;;29.67;100.00;96564.78;5071575;28;20596;-80
2021/09/14 11:35:24;;;;;;;5.82;4.63;;;;;;;29.90;100.00;96573.41;5071922;28;20213;-81
2021/09/14 11:38:03;;;;;;;6.75;4.90;;;;;;;29.46;100.00;96560.44;5072055;28;20275;-80
2021/09/14 11:40:33;;;;;;;5.22;4.80;;;;;;;29.70;100.00;96561.53;5071955;28;20199;-80
2021/09/14 11:43:01;;;;;;;7.32;4.93;;;;;;;29.63;100.00;96566.41;5071437;28;20209;-80
2021/09/14 11:45:31;;;;;;;8.50;5.75;;;;;;;29.87;100.00;96563.13;5071900;28;20565;-81
2021/09/14 11:48:00;;;;;;;5.10;4.70;;;;;;;29.60;100.00;96556.94;5071668;28;20203;-81
2021/09/14 11:50:29;;;;;;;8.35;5.05;;;;;;;29.77;100.00;96558.53;5071533;28;20205;-81
2021/09/14 11:53:06;;;;;;;6.00;4.85;;;;;;;29.94;100.00;96553.63;5071948;28;20615;-80
2021/09/14 11:55:34;;;;;;;5.50;4.53;;;;;;;29.85;100.00;96547.94;5071981;28;20292;-81
2021/09/14 11:58:02;;;;;;;6.78;5.10;;;;;;;29.69;100.00;96550.97;5071511;28;20189;-80
2021/09/14 12:00:38;;;;;;;6.15;4.70;;;;;;;29.78;100.00;96547.41;5071775;28;20628;-81
2021/09/14 12:03:05;;;;;;;5.97;5.38;;;;;;;29.87;100.00;96549.56;5071853;28;20222;-82
2021/09/14 12:05:33;;;;;;;7.32;4.53;;;;;;;29.84;100.00;96548.22;5071913;28;20193;-81
2021/09/14 12:08:02;;;;;;;17.25;5.82;;;;;;;29.59;100.00;96549.91;5071555;28;20208;-81
2021/09/14 12:10:31;;;;;;;7.07;4.72;;;;;;;29.66;100.00;96544.19;5071610;28;20204;-81